KUNV/SCE METAR and TAF weather

Enter ICAO airport designator
Station Type Date Time Source
KUNV METAR 2019/12/06 13:53 UTC NOAA

KUNV 061353Z 25003KT 10SM SKC 00/M03 A3000


Station Type Date Time Source
KUNV Decoded METAR 2019/12/06 13:53 UTC NOAA

State College, University Park Airport, PA, United States (KUNV) 40-51N 077-51W
Dec 06, 2019 - 08:53 AM EST / 2019.12.06 1353 UTC
Wind: from the WSW (250 degrees) at 3 MPH (3 KT):0
Visibility: 10 mile(s):0
Sky conditions: clear
Temperature: 32 F (0 C)
Dew Point: 26 F (-3 C)
Relative Humidity: 80%
Pressure (altimeter): 30 in. Hg (1015 hPa)
ob: KUNV 061353Z 25003KT 10SM SKC 00/M03 A3000
cycle: 14

Station Type Date Time Source
KUNV TAF 2019/12/06 12:59 UTC NOAA

TAF KUNV 061159Z 0612/0712 00000KT P6SM OVC070
FM061500 26012G20KT P6SM BKN040 OVC080
FM062100 29013G21KT P6SM OVC030
FM070400 30012KT P6SM SCT030

Example: see airport list